Captiva — WDF3796 — position and weather

sailwx.info

Track history (hours):
 
Tides and Currents Weather Stations Pressure Air Temp Water Temp Dewpoint Dewpoint Depression Visibility Wind Speed Wind Dir Waves Ship Positions

Captiva

Owner: Callahan, Michael F, Swampscott, MA. More information available from US FCC via Universal Licensing System and Coast Guard Vessel Documentation Center.

Last reported at 2016-Jun-26 01:18 UTC. Time now 2016-Jun-30 10:33 UTC.
Position N 42°58' W 070°03'.

Length 15 m.

Type: Sailing vessel. MMSI: 367444090.

Date/timePositionNaut miles runAvg speedWind from/ knotsBaromVisibWave heightAir tempDewpointWater temp
2016-Jun-26 01:18N 42°58' W 070°03'12 7.1
2016-Jun-25 23:33N 42°50' W 070°15'8 7.6
2016-Jun-25 22:32N 42°44' W 070°23'7 7.7
2016-Jun-25 21:33N 42°39' W 070°30'7 7.3
2016-Jun-25 20:34N 42°34' W 070°37'14 6.8
2016-Jun-25 18:34N 42°25' W 070°51'5 5.1
2016-Jun-25 17:34N 42°21' W 070°55'2 1.9
2016-Jun-25 16:34N 42°20' W 070°58'  
2016-Jun-17 19:33N 42°20' W 070°59'6 5.6
2016-Jun-17 18:33N 42°24' W 070°53'3 3.3
2016-Jun-17 17:33N 42°21' W 070°50'1 1.2
2016-Jun-17 16:33N 42°20' W 070°50'5 4.6
2016-Jun-17 15:33N 42°21' W 070°56'  
Track history (hours):
 
Tides and Currents Weather Stations Pressure Air Temp Water Temp Dewpoint Dewpoint Depression Visibility Wind Speed Wind Dir Waves Ship Positions

Captiva

Owner: Callahan, Michael F, Swampscott, MA. More information available from US FCC via Universal Licensing System and Coast Guard Vessel Documentation Center.

Last reported at 2016-Jun-26 01:18 UTC. Time now 2016-Jun-30 10:33 UTC.
Position N 42°58' W 070°03'.

Length 15 m.

Type: Sailing vessel. MMSI: 367444090.

Date/timePositionNaut miles runAvg speedWind from/ knotsBaromVisibWave heightAir tempDewpointWater temp
2016-Jun-26 01:18N 42°58' W 070°03'12 7.1
2016-Jun-25 23:33N 42°50' W 070°15'8 7.6
2016-Jun-25 22:32N 42°44' W 070°23'7 7.7
2016-Jun-25 21:33N 42°39' W 070°30'7 7.3
2016-Jun-25 20:34N 42°34' W 070°37'14 6.8
2016-Jun-25 18:34N 42°25' W 070°51'5 5.1
2016-Jun-25 17:34N 42°21' W 070°55'2 1.9
2016-Jun-25 16:34N 42°20' W 070°58'  
2016-Jun-17 19:33N 42°20' W 070°59'6 5.6
2016-Jun-17 18:33N 42°24' W 070°53'3 3.3
2016-Jun-17 17:33N 42°21' W 070°50'1 1.2
2016-Jun-17 16:33N 42°20' W 070°50'5 4.6
2016-Jun-17 15:33N 42°21' W 070°56'  

Dump ship's entire track history